Disclaimer

Please do not use the information listed here in-flight or in-navigation, as they are not provided to us by the airports but are provided by volunteers, so they might be outdated.

Search


Regions


Airport information page

No radio frequency information is available.

Airport informations:
Latitude: 09° 24' 03.16" S
Longitude: 038° 15' 02.07" W
Elevation: 883 feet - 269 meters
Operating hours: Remarks
Operating agency: Civil government, landing fees and diplomatic clearance may be required
Timezone: UTC-3(-2DT)
Fuel: Jet A1, without icing nhibitor.

100/130 octane gasoline, leaded, MIL-L-5572F (GREEN)

Runway information:
14/32 - 5906 x 148 feet< - >1800 x 45 meters

Recent METARs:
SBUF 211500Z 13009KT 9999 BKN021 33/16 Q1014
SBUF 211500Z 13009KT 9999 BKN021 33/16 Q1014
SBUF 211600Z 12011KT 9999 SCT021 35/15 Q1013

Airport on the map: